AirNav   Air Wisconsin Up To $57,000 Bonus
 
 889 users online  

0MI7 Four Star Heliport
Carleton, Michigan, USA

GOING TO CARLETON?


FAA INFORMATION EFFECTIVE 07 NOVEMBER 2019

Location

FAA Identifier: 0MI7
Lat/Long: 42-02-35.0000N 083-21-34.0000W
42-02.583333N 083-21.566667W
42.0430556,-83.3594444
(estimated)
Elevation: 603 ft. / 184 m (estimated)
From city: 2 miles SE of CARLETON, MI
Time zone: UTC -5 (UTC -4 during Daylight Saving Time)
Zip code: 48117

Heliport Operations

Heliport use: Private use. Permission required prior to landing
Activation date: 02/2004
Control tower: no
ARTCC: CLEVELAND CENTER
FSS: LANSING FLIGHT SERVICE STATION
Attendance: UNATNDD
Wind indicator: yes
Segmented circle: no
Lights: ACTVT VASI, PERMITER LGTS & FLASHING RED LGT 8 CLICKS 122.9
Beacon: ROTG BCN IS RED LGT ON TOP OF BLDG.

Heliport Communications

WX AWOS-3 at TTF (7 nm SW): 119.075 (734-384-0259)
WX AWOS-3 at ONZ (9 nm E): 119.675 (734-692-9686)
WX ASOS at DTW (10 nm N): PHONE 734-955-5015
WX ASOS at YIP (14 nm NW): PHONE 734-961-6843

Nearby radio navigation aids

VOR radial/distance  VOR name  Freq  Var
CRLr097/4.4CARLETON VOR/DME115.7003W
DXOr184/10.2DETROIT VOR/DME113.4006W
SVMr158/24.3SALEM VORTAC114.3003W
YQGr248/26.7WINDSOR VOR/DME113.8006W
VWVr021/37.6WATERVILLE VOR/DME113.1002W

 
NDB name  Hdg/Dist  Freq  Var  ID
GROSSE ILE256/9.841907WRYS .-. -.-- ...
TECUMSEH095/23.523906WTCU - -.-. ..-
ADRIAN078/33.727806WADG .- -.. --.
PORT CLINTON332/38.442307WPCW .--. -.-. .--

Heliport Services

Runway Information

Helipad H1

Dimensions: 35 x 35 ft. / 11 x 11 m
Surface: concrete
Runway edge lights: PERI
NSTD 3 LIGHT VASI SYSTEM.
Operational restrictions: CIRCULAS HELIPAD.
Traffic pattern: leftleft

Heliport Ownership and Management from official FAA records

Ownership: Privately-owned
Owner: THOMAS JOSEPH SMITH
1015 INDIAN TRAILS RD
CARLETON, MI 48117
Phone 734-654-6420
Manager: THOMAS JOSEPH SMITH
1015 INDIAN TRAILS RD
CARLETON, MI 48117
Phone 734-654-6420

Heliport Operational Statistics

Aircraft based on the field: 1
Helicopters: 1
    

Additional Remarks

A52-H1 30 FT POWERLINE 375 FT W OF PAD RUNNING N & S.
FOR CD CTC DETROIT APCH AT 800-499-8181.

Instrument Procedures

There are no published instrument procedures at 0MI7.

Some nearby airports with instrument procedures:

KTTF - Custer Airport (7 nm SW)
KONZ - Grosse Ile Municipal Airport (9 nm E)
KDTW - Detroit Metropolitan Wayne County Airport (10 nm N)
KYIP - Willow Run Airport (14 nm NW)
1D2 - Canton-Plymouth-Mettetal Airport (19 nm N)
 
Loc | Ops | Rwys | IFR | FBO | Links
Com | Nav | Svcs | Stats | Notes
Area around 0MI7 (Four Star Heliport)
 
Road maps at: MapQuest Bing Google
 
Aerial photo
WARNING: Photo may not be current or correct
Aerial photo of 0MI7 (Four Star Heliport)
Do you have a better or more recent aerial photo of Four Star Heliport that you would like to share? If so, please send us your photo.

 
Sectional chart

 
Airport distance calculator
Flying to Four Star Heliport? Find the distance to fly.

From to 0MI7

Sunrise and sunset
Times for 19-Nov-2019
 Local
(UTC-5)
 Zulu
(UTC)
Morning civil twilight06:5911:59
Sunrise07:2912:29
Sunset17:0822:08
Evening civil twilight17:3922:39

Current date and time
Zulu (UTC)  20-Nov-2019 02:01:52
Local (UTC-5)  19-Nov-2019 21:01:52
 
METAR
KTTF 
7nm S 
200155Z AUTO 00000KT 4SM BR OVC038 04/02 A2993 RMK AO2 T00350015
KONZ 
10nm E 
200155Z AUTO 00000KT 3SM BR OVC035 03/03 A2993 RMK AO2 T00320027
KDTW 
11nm N 
200153Z 30003KT 5SM BR OVC035 04/02 A2994 RMK AO2 SLP143 T00390017
KYIP 
14nm NW 
200153Z 00000KT 6SM BR OVC035 03/02 A2994 RMK AO2 SLP141 T00330017
KARB 
20nm NW 
734-668-7173
200153Z AUTO 00000KT 3SM BR OVC035 02/01 A2993 RMK AO2 SLP142 T00220006
TAF
KDTW 
11nm N 
191949Z 1920/2024 22003KT 3SM BR BKN012 OVC025 FM192100 24005KT 6SM BR BKN020 OVC040 FM192200 24003KT P6SM SCT025 BKN040 FM200100 24002KT 6SM BR BKN030 FM200700 26002KT 3SM BR OVC025 FM201400 30004KT P6SM SCT025
KYIP 
14nm NW 
191736Z 1918/2018 22003KT 3SM BR BKN012 OVC025 FM191900 24005KT 6SM BR BKN020 OVC040 FM192200 24003KT P6SM SCT025 BKN040 FM200100 24002KT 6SM BR BKN030 FM200700 26002KT 3SM BR OVC025 FM201400 30004KT P6SM SCT025
NOTAMs
Click for the latest NOTAMs
NOTAMs are issued by the DoD/FAA and will open in a separate window not controlled by AirNav.

 

 
 

Would you like to see your business listed on this page?

 If your business provides an interesting product or service to pilots, flight crews, aircraft, or users of the Four Star Heliport, you should consider listing it here.  To start the listing process, click on the button below
 
Add a business
 

Other Pages about Four Star Heliport

Update a link
 
Copyright © AirNav, LLC. All rights reserved. Privacy Policy  Contact